sensor_id;sensor_type;location;lat;lon;timestamp;temperature;humidity
43143;DHT22;28750;59.842;17.584;2022-08-05T00:00:19;17.60;99.90
43143;DHT22;28750;59.842;17.584;2022-08-05T00:02:46;17.60;99.90
43143;DHT22;28750;59.842;17.584;2022-08-05T00:05:13;17.70;99.90
43143;DHT22;28750;59.842;17.584;2022-08-05T00:07:40;17.70;99.90
43143;DHT22;28750;59.842;17.584;2022-08-05T00:10:08;17.60;99.90
43143;DHT22;28750;59.842;17.584;2022-08-05T00:12:35;17.70;99.90
43143;DHT22;28750;59.842;17.584;2022-08-05T00:15:02;17.70;99.90
43143;DHT22;28750;59.842;17.584;2022-08-05T00:17:29;17.70;99.90
43143;DHT22;28750;59.842;17.584;2022-08-05T00:19:56;17.70;99.90
43143;DHT22;28750;59.842;17.584;2022-08-05T00:22:23;17.80;99.90
43143;DHT22;28750;59.842;17.584;2022-08-05T00:24:50;17.70;99.90
43143;DHT22;28750;59.842;17.584;2022-08-05T00:27:17;17.70;99.90
43143;DHT22;28750;59.842;17.584;2022-08-05T00:29:44;17.70;99.90
43143;DHT22;28750;59.842;17.584;2022-08-05T00:32:11;17.80;99.90
43143;DHT22;28750;59.842;17.584;2022-08-05T00:34:44;17.80;99.90
43143;DHT22;28750;59.842;17.584;2022-08-05T00:37:11;17.70;99.90
43143;DHT22;28750;59.842;17.584;2022-08-05T00:39:38;17.60;99.90
43143;DHT22;28750;59.842;17.584;2022-08-05T00:42:07;17.60;99.90
43143;DHT22;28750;59.842;17.584;2022-08-05T00:44:34;17.70;99.90
43143;DHT22;28750;59.842;17.584;2022-08-05T00:47:01;17.80;99.90
43143;DHT22;28750;59.842;17.584;2022-08-05T00:49:28;17.80;99.90
43143;DHT22;28750;59.842;17.584;2022-08-05T00:51:55;17.90;99.90
43143;DHT22;28750;59.842;17.584;2022-08-05T00:54:22;17.80;99.90
43143;DHT22;28750;59.842;17.584;2022-08-05T00:56:49;17.80;99.90
43143;DHT22;28750;59.842;17.584;2022-08-05T00:59:16;17.70;99.90
43143;DHT22;28750;59.842;17.584;2022-08-05T01:01:43;17.70;99.90
43143;DHT22;28750;59.842;17.584;2022-08-05T01:04:10;17.70;99.90
43143;DHT22;28750;59.842;17.584;2022-08-05T01:06:37;17.70;99.90
43143;DHT22;28750;59.842;17.584;2022-08-05T01:09:03;17.80;99.90
43143;DHT22;28750;59.842;17.584;2022-08-05T01:11:36;17.80;99.90
43143;DHT22;28750;59.842;17.584;2022-08-05T01:14:17;17.80;99.90
43143;DHT22;28750;59.842;17.584;2022-08-05T01:19:32;17.70;99.90
43143;DHT22;28750;59.842;17.584;2022-08-05T01:30:39;17.50;99.90
43143;DHT22;28750;59.842;17.584;2022-08-05T01:33:09;17.60;99.90
43143;DHT22;28750;59.842;17.584;2022-08-05T01:35:39;17.50;99.90
43143;DHT22;28750;59.842;17.584;2022-08-05T01:38:09;17.50;99.90
43143;DHT22;28750;59.842;17.584;2022-08-05T01:40:38;17.50;99.90
43143;DHT22;28750;59.842;17.584;2022-08-05T01:43:06;17.50;99.90
43143;DHT22;28750;59.842;17.584;2022-08-05T01:45:36;17.40;99.90
43143;DHT22;28750;59.842;17.584;2022-08-05T01:48:06;17.40;99.90
43143;DHT22;28750;59.842;17.584;2022-08-05T01:50:38;17.50;99.90
43143;DHT22;28750;59.842;17.584;2022-08-05T01:53:10;17.30;99.90
43143;DHT22;28750;59.842;17.584;2022-08-05T01:55:38;17.30;99.90
43143;DHT22;28750;59.842;17.584;2022-08-05T01:58:08;17.40;99.90
43143;DHT22;28750;59.842;17.584;2022-08-05T02:00:40;17.30;99.90
43143;DHT22;28750;59.842;17.584;2022-08-05T02:03:22;17.30;99.90
43143;DHT22;28750;59.842;17.584;2022-08-05T02:05:52;17.30;99.90
43143;DHT22;28750;59.842;17.584;2022-08-05T02:08:20;17.40;99.90
43143;DHT22;28750;59.842;17.584;2022-08-05T02:10:52;17.40;99.90
43143;DHT22;28750;59.842;17.584;2022-08-05T02:13:37;17.40;99.90
43143;DHT22;28750;59.842;17.584;2022-08-05T02:16:21;17.40;99.90
43143;DHT22;28750;59.842;17.584;2022-08-05T02:18:57;17.40;99.90
43143;DHT22;28750;59.842;17.584;2022-08-05T02:21:34;17.40;99.90
43143;DHT22;28750;59.842;17.584;2022-08-05T02:24:07;17.30;99.90
43143;DHT22;28750;59.842;17.584;2022-08-05T02:26:49;17.30;99.90
43143;DHT22;28750;59.842;17.584;2022-08-05T02:29:22;17.20;99.90
43143;DHT22;28750;59.842;17.584;2022-08-05T02:31:50;17.30;99.90
43143;DHT22;28750;59.842;17.584;2022-08-05T02:34:20;17.30;99.90
43143;DHT22;28750;59.842;17.584;2022-08-05T02:36:50;17.30;99.90
43143;DHT22;28750;59.842;17.584;2022-08-05T02:39:19;17.40;99.90
43143;DHT22;28750;59.842;17.584;2022-08-05T02:41:47;17.40;99.90
43143;DHT22;28750;59.842;17.584;2022-08-05T02:44:15;17.40;99.90
43143;DHT22;28750;59.842;17.584;2022-08-05T02:46:46;17.40;99.90
43143;DHT22;28750;59.842;17.584;2022-08-05T02:49:15;17.40;99.90
43143;DHT22;28750;59.842;17.584;2022-08-05T02:51:43;17.40;99.90
43143;DHT22;28750;59.842;17.584;2022-08-05T02:54:11;17.60;99.90
43143;DHT22;28750;59.842;17.584;2022-08-05T02:56:40;17.50;99.90
43143;DHT22;28750;59.842;17.584;2022-08-05T02:59:09;17.60;99.90
43143;DHT22;28750;59.842;17.584;2022-08-05T03:01:39;17.60;99.90
43143;DHT22;28750;59.842;17.584;2022-08-05T03:04:10;17.50;99.90
43143;DHT22;28750;59.842;17.584;2022-08-05T03:06:40;17.60;99.90
43143;DHT22;28750;59.842;17.584;2022-08-05T03:09:11;17.60;99.90
43143;DHT22;28750;59.842;17.584;2022-08-05T03:11:40;17.60;99.90
43143;DHT22;28750;59.842;17.584;2022-08-05T03:14:07;17.60;99.90
43143;DHT22;28750;59.842;17.584;2022-08-05T03:16:34;17.60;99.90
43143;DHT22;28750;59.842;17.584;2022-08-05T03:19:02;17.60;99.90
43143;DHT22;28750;59.842;17.584;2022-08-05T03:21:30;17.60;99.90
43143;DHT22;28750;59.842;17.584;2022-08-05T03:23:57;17.60;99.90
43143;DHT22;28750;59.842;17.584;2022-08-05T03:26:24;17.60;99.90
43143;DHT22;28750;59.842;17.584;2022-08-05T03:28:51;17.60;99.90
43143;DHT22;28750;59.842;17.584;2022-08-05T03:31:19;17.70;99.90
43143;DHT22;28750;59.842;17.584;2022-08-05T03:33:46;17.60;99.90
43143;DHT22;28750;59.842;17.584;2022-08-05T03:36:13;17.60;99.90
43143;DHT22;28750;59.842;17.584;2022-08-05T03:38:40;17.60;99.90
43143;DHT22;28750;59.842;17.584;2022-08-05T03:41:07;17.50;99.90
43143;DHT22;28750;59.842;17.584;2022-08-05T03:43:35;17.60;99.90
43143;DHT22;28750;59.842;17.584;2022-08-05T03:46:03;17.60;99.90
43143;DHT22;28750;59.842;17.584;2022-08-05T03:48:30;17.60;99.90
43143;DHT22;28750;59.842;17.584;2022-08-05T03:56:32;17.60;99.90
43143;DHT22;28750;59.842;17.584;2022-08-05T03:59:06;17.50;99.90
43143;DHT22;28750;59.842;17.584;2022-08-05T04:01:38;17.50;99.90
43143;DHT22;28750;59.842;17.584;2022-08-05T04:04:06;17.50;99.90
43143;DHT22;28750;59.842;17.584;2022-08-05T04:06:34;17.50;99.90
43143;DHT22;28750;59.842;17.584;2022-08-05T04:09:03;17.60;99.90
43143;DHT22;28750;59.842;17.584;2022-08-05T04:11:31;17.60;99.90
43143;DHT22;28750;59.842;17.584;2022-08-05T04:13:59;17.50;99.90
43143;DHT22;28750;59.842;17.584;2022-08-05T04:16:27;17.60;99.90
43143;DHT22;28750;59.842;17.584;2022-08-05T04:18:54;17.60;99.90
43143;DHT22;28750;59.842;17.584;2022-08-05T04:21:21;17.60;99.90
43143;DHT22;28750;59.842;17.584;2022-08-05T04:23:48;17.70;99.90
43143;DHT22;28750;59.842;17.584;2022-08-05T04:26:15;17.70;99.90
43143;DHT22;28750;59.842;17.584;2022-08-05T04:28:42;17.70;99.90
43143;DHT22;28750;59.842;17.584;2022-08-05T04:31:09;17.70;99.90
43143;DHT22;28750;59.842;17.584;2022-08-05T04:33:36;17.80;99.90
43143;DHT22;28750;59.842;17.584;2022-08-05T04:36:04;17.80;99.90
43143;DHT22;28750;59.842;17.584;2022-08-05T04:38:31;17.90;99.90
43143;DHT22;28750;59.842;17.584;2022-08-05T04:40:58;17.90;99.90
43143;DHT22;28750;59.842;17.584;2022-08-05T04:43:25;17.90;99.90
43143;DHT22;28750;59.842;17.584;2022-08-05T04:45:51;17.90;99.90
43143;DHT22;28750;59.842;17.584;2022-08-05T04:48:18;17.90;99.90
43143;DHT22;28750;59.842;17.584;2022-08-05T04:50:48;17.90;99.90
43143;DHT22;28750;59.842;17.584;2022-08-05T04:53:17;17.80;99.90
43143;DHT22;28750;59.842;17.584;2022-08-05T04:55:45;17.90;99.90
43143;DHT22;28750;59.842;17.584;2022-08-05T04:58:14;17.90;99.90
43143;DHT22;28750;59.842;17.584;2022-08-05T05:00:42;18.00;99.90
43143;DHT22;28750;59.842;17.584;2022-08-05T05:03:09;18.00;99.90
43143;DHT22;28750;59.842;17.584;2022-08-05T05:05:37;18.10;99.90
43143;DHT22;28750;59.842;17.584;2022-08-05T05:08:06;18.00;99.90
43143;DHT22;28750;59.842;17.584;2022-08-05T05:10:41;18.10;99.90
43143;DHT22;28750;59.842;17.584;2022-08-05T05:13:13;18.10;99.90
43143;DHT22;28750;59.842;17.584;2022-08-05T05:15:42;18.10;99.90
43143;DHT22;28750;59.842;17.584;2022-08-05T05:18:14;18.00;99.90
43143;DHT22;28750;59.842;17.584;2022-08-05T05:20:45;18.10;99.90
43143;DHT22;28750;59.842;17.584;2022-08-05T05:23:12;18.10;99.90
43143;DHT22;28750;59.842;17.584;2022-08-05T05:25:41;18.10;99.90
43143;DHT22;28750;59.842;17.584;2022-08-05T05:28:08;18.20;99.90
43143;DHT22;28750;59.842;17.584;2022-08-05T05:30:37;18.10;99.90
43143;DHT22;28750;59.842;17.584;2022-08-05T05:33:06;18.30;99.90
43143;DHT22;28750;59.842;17.584;2022-08-05T05:35:34;18.30;99.90
43143;DHT22;28750;59.842;17.584;2022-08-05T05:38:02;18.40;99.90
43143;DHT22;28750;59.842;17.584;2022-08-05T05:40:30;18.50;99.90
43143;DHT22;28750;59.842;17.584;2022-08-05T05:42:57;18.50;99.90
43143;DHT22;28750;59.842;17.584;2022-08-05T05:45:24;18.50;99.90
43143;DHT22;28750;59.842;17.584;2022-08-05T05:47:52;18.50;99.90
43143;DHT22;28750;59.842;17.584;2022-08-05T05:50:19;18.70;99.90
43143;DHT22;28750;59.842;17.584;2022-08-05T05:52:46;18.80;99.90
43143;DHT22;28750;59.842;17.584;2022-08-05T05:55:15;18.90;99.90
43143;DHT22;28750;59.842;17.584;2022-08-05T05:57:44;19.10;99.90
43143;DHT22;28750;59.842;17.584;2022-08-05T06:00:16;19.20;99.90
43143;DHT22;28750;59.842;17.584;2022-08-05T06:02:44;19.30;99.90
43143;DHT22;28750;59.842;17.584;2022-08-05T06:05:13;19.20;99.90
43143;DHT22;28750;59.842;17.584;2022-08-05T06:07:41;19.20;99.90
43143;DHT22;28750;59.842;17.584;2022-08-05T06:10:09;19.30;99.90
43143;DHT22;28750;59.842;17.584;2022-08-05T06:12:37;19.40;99.90
43143;DHT22;28750;59.842;17.584;2022-08-05T06:15:05;19.60;99.90
43143;DHT22;28750;59.842;17.584;2022-08-05T06:17:32;19.70;99.90
43143;DHT22;28750;59.842;17.584;2022-08-05T06:20:00;19.80;99.90
43143;DHT22;28750;59.842;17.584;2022-08-05T06:22:28;19.80;99.90
43143;DHT22;28750;59.842;17.584;2022-08-05T06:24:56;19.80;99.90
43143;DHT22;28750;59.842;17.584;2022-08-05T06:27:23;19.90;99.90
43143;DHT22;28750;59.842;17.584;2022-08-05T06:29:50;19.80;99.90
43143;DHT22;28750;59.842;17.584;2022-08-05T06:32:18;19.70;99.90
43143;DHT22;28750;59.842;17.584;2022-08-05T06:34:45;19.90;99.90
43143;DHT22;28750;59.842;17.584;2022-08-05T06:37:12;20.10;99.90
43143;DHT22;28750;59.842;17.584;2022-08-05T06:39:39;20.20;99.90
43143;DHT22;28750;59.842;17.584;2022-08-05T06:42:06;20.20;99.90
43143;DHT22;28750;59.842;17.584;2022-08-05T06:44:33;20.20;99.90
43143;DHT22;28750;59.842;17.584;2022-08-05T06:47:00;20.10;99.90
43143;DHT22;28750;59.842;17.584;2022-08-05T06:49:27;20.00;99.90
43143;DHT22;28750;59.842;17.584;2022-08-05T06:51:54;19.90;99.90
43143;DHT22;28750;59.842;17.584;2022-08-05T06:54:21;20.00;99.90
43143;DHT22;28750;59.842;17.584;2022-08-05T06:56:48;20.00;99.90
43143;DHT22;28750;59.842;17.584;2022-08-05T06:59:15;20.00;99.90
43143;DHT22;28750;59.842;17.584;2022-08-05T07:01:42;20.20;99.90
43143;DHT22;28750;59.842;17.584;2022-08-05T07:04:09;20.40;99.90
43143;DHT22;28750;59.842;17.584;2022-08-05T07:06:36;21.00;99.90
43143;DHT22;28750;59.842;17.584;2022-08-05T07:09:03;21.50;99.90
43143;DHT22;28750;59.842;17.584;2022-08-05T07:11:33;21.80;99.90
43143;DHT22;28750;59.842;17.584;2022-08-05T07:14:00;21.70;99.90
43143;DHT22;28750;59.842;17.584;2022-08-05T07:16:45;21.60;99.90
43143;DHT22;28750;59.842;17.584;2022-08-05T07:19:19;21.40;99.90
43143;DHT22;28750;59.842;17.584;2022-08-05T07:21:48;21.20;99.90
43143;DHT22;28750;59.842;17.584;2022-08-05T07:24:16;21.10;99.90
43143;DHT22;28750;59.842;17.584;2022-08-05T07:26:44;21.10;99.90
43143;DHT22;28750;59.842;17.584;2022-08-05T07:29:11;21.20;99.90
43143;DHT22;28750;59.842;17.584;2022-08-05T07:31:39;21.20;99.90
43143;DHT22;28750;59.842;17.584;2022-08-05T07:34:06;21.30;99.90
43143;DHT22;28750;59.842;17.584;2022-08-05T07:36:34;21.20;99.90
43143;DHT22;28750;59.842;17.584;2022-08-05T07:39:03;21.00;99.90
43143;DHT22;28750;59.842;17.584;2022-08-05T07:41:30;21.00;99.90
43143;DHT22;28750;59.842;17.584;2022-08-05T07:43:58;21.20;99.90
43143;DHT22;28750;59.842;17.584;2022-08-05T07:46:27;20.90;99.90
43143;DHT22;28750;59.842;17.584;2022-08-05T07:48:57;21.10;99.90
43143;DHT22;28750;59.842;17.584;2022-08-05T07:51:24;21.20;99.90
43143;DHT22;28750;59.842;17.584;2022-08-05T07:53:51;21.20;99.90
43143;DHT22;28750;59.842;17.584;2022-08-05T07:56:18;21.10;99.90
43143;DHT22;28750;59.842;17.584;2022-08-05T07:58:45;21.10;99.90
43143;DHT22;28750;59.842;17.584;2022-08-05T08:01:12;21.20;99.90
43143;DHT22;28750;59.842;17.584;2022-08-05T08:03:39;21.90;99.90
43143;DHT22;28750;59.842;17.584;2022-08-05T08:06:06;22.20;99.90
43143;DHT22;28750;59.842;17.584;2022-08-05T08:08:33;21.90;99.90
43143;DHT22;28750;59.842;17.584;2022-08-05T08:11:00;21.80;99.90
43143;DHT22;28750;59.842;17.584;2022-08-05T08:13:27;21.60;99.90
43143;DHT22;28750;59.842;17.584;2022-08-05T08:15:53;21.70;99.90
43143;DHT22;28750;59.842;17.584;2022-08-05T08:18:20;21.70;99.90
43143;DHT22;28750;59.842;17.584;2022-08-05T08:20:47;21.60;99.90
43143;DHT22;28750;59.842;17.584;2022-08-05T08:23:16;21.80;99.90
43143;DHT22;28750;59.842;17.584;2022-08-05T08:25:45;21.90;99.90
43143;DHT22;28750;59.842;17.584;2022-08-05T08:28:12;21.90;99.90
43143;DHT22;28750;59.842;17.584;2022-08-05T08:30:39;22.00;99.90
43143;DHT22;28750;59.842;17.584;2022-08-05T08:33:10;22.10;99.90
43143;DHT22;28750;59.842;17.584;2022-08-05T08:35:37;22.20;99.90
43143;DHT22;28750;59.842;17.584;2022-08-05T08:38:04;22.40;99.90
43143;DHT22;28750;59.842;17.584;2022-08-05T08:40:33;22.80;99.90
43143;DHT22;28750;59.842;17.584;2022-08-05T08:43:01;23.20;99.90
43143;DHT22;28750;59.842;17.584;2022-08-05T08:45:29;23.00;89.60
43143;DHT22;28750;59.842;17.584;2022-08-05T08:47:58;23.00;99.90
43143;DHT22;28750;59.842;17.584;2022-08-05T08:50:29;22.80;99.90
43143;DHT22;28750;59.842;17.584;2022-08-05T08:53:05;22.70;99.90
43143;DHT22;28750;59.842;17.584;2022-08-05T08:55:33;22.80;99.90
43143;DHT22;28750;59.842;17.584;2022-08-05T08:58:02;23.00;99.90
43143;DHT22;28750;59.842;17.584;2022-08-05T09:00:29;23.00;99.90
43143;DHT22;28750;59.842;17.584;2022-08-05T09:02:57;23.00;99.90
43143;DHT22;28750;59.842;17.584;2022-08-05T09:05:24;22.70;99.90
43143;DHT22;28750;59.842;17.584;2022-08-05T09:07:52;22.70;99.90
43143;DHT22;28750;59.842;17.584;2022-08-05T09:10:21;22.70;99.90
43143;DHT22;28750;59.842;17.584;2022-08-05T09:12:48;22.80;99.90
43143;DHT22;28750;59.842;17.584;2022-08-05T09:15:15;22.60;99.90
43143;DHT22;28750;59.842;17.584;2022-08-05T09:17:42;22.60;99.90
43143;DHT22;28750;59.842;17.584;2022-08-05T09:20:10;22.80;99.90
43143;DHT22;28750;59.842;17.584;2022-08-05T09:23:09;22.70;99.90
43143;DHT22;28750;59.842;17.584;2022-08-05T09:25:44;22.90;99.90
43143;DHT22;28750;59.842;17.584;2022-08-05T09:28:23;22.90;99.90
43143;DHT22;28750;59.842;17.584;2022-08-05T09:30:58;22.90;99.90
43143;DHT22;28750;59.842;17.584;2022-08-05T09:33:30;23.00;92.50
43143;DHT22;28750;59.842;17.584;2022-08-05T09:36:03;23.70;1.00
43143;DHT22;28750;59.842;17.584;2022-08-05T09:38:31;24.50;99.90
43143;DHT22;28750;59.842;17.584;2022-08-05T09:41:03;24.40;99.90
43143;DHT22;28750;59.842;17.584;2022-08-05T09:43:34;24.10;99.90
43143;DHT22;28750;59.842;17.584;2022-08-05T09:46:02;23.90;99.90
43143;DHT22;28750;59.842;17.584;2022-08-05T09:48:33;23.80;1.00
43143;DHT22;28750;59.842;17.584;2022-08-05T09:51:05;23.80;1.00
43143;DHT22;28750;59.842;17.584;2022-08-05T09:53:47;23.40;1.00
43143;DHT22;28750;59.842;17.584;2022-08-05T09:56:32;23.50;1.00
43143;DHT22;28750;59.842;17.584;2022-08-05T09:59:12;23.40;1.00
43143;DHT22;28750;59.842;17.584;2022-08-05T10:01:42;24.10;1.00
43143;DHT22;28750;59.842;17.584;2022-08-05T10:04:12;24.60;99.90
43143;DHT22;28750;59.842;17.584;2022-08-05T10:06:42;24.90;99.90
43143;DHT22;28750;59.842;17.584;2022-08-05T10:09:14;24.40;99.90
43143;DHT22;28750;59.842;17.584;2022-08-05T10:11:42;24.30;99.90
43143;DHT22;28750;59.842;17.584;2022-08-05T10:14:27;25.70;99.90
43143;DHT22;28750;59.842;17.584;2022-08-05T10:16:55;26.40;1.00
43143;DHT22;28750;59.842;17.584;2022-08-05T10:19:24;25.50;58.30
43143;DHT22;28750;59.842;17.584;2022-08-05T10:21:52;26.20;58.60
43143;DHT22;28750;59.842;17.584;2022-08-05T10:24:19;27.30;99.90
43143;DHT22;28750;59.842;17.584;2022-08-05T10:26:48;28.00;99.90
43143;DHT22;28750;59.842;17.584;2022-08-05T10:29:16;26.80;1.00
43143;DHT22;28750;59.842;17.584;2022-08-05T10:31:43;25.70;99.90
43143;DHT22;28750;59.842;17.584;2022-08-05T10:34:10;25.10;1.00
43143;DHT22;28750;59.842;17.584;2022-08-05T10:36:39;25.10;99.90
43143;DHT22;28750;59.842;17.584;2022-08-05T10:39:16;25.60;1.00
43143;DHT22;28750;59.842;17.584;2022-08-05T10:42:02;27.20;1.00
43143;DHT22;28750;59.842;17.584;2022-08-05T10:44:34;27.60;99.90
43143;DHT22;28750;59.842;17.584;2022-08-05T10:47:13;27.50;99.90
43143;DHT22;28750;59.842;17.584;2022-08-05T10:50:01;27.00;99.90
43143;DHT22;28750;59.842;17.584;2022-08-05T10:52:50;26.00;99.90
43143;DHT22;28750;59.842;17.584;2022-08-05T10:55:25;25.40;99.90
43143;DHT22;28750;59.842;17.584;2022-08-05T10:58:08;25.00;1.00
43143;DHT22;28750;59.842;17.584;2022-08-05T11:00:35;24.80;64.30
43143;DHT22;28750;59.842;17.584;2022-08-05T11:05:30;24.30;95.50
43143;DHT22;28750;59.842;17.584;2022-08-05T11:08:01;24.30;99.90
43143;DHT22;28750;59.842;17.584;2022-08-05T11:10:30;24.50;99.90
43143;DHT22;28750;59.842;17.584;2022-08-05T11:12:59;24.70;1.00
43143;DHT22;28750;59.842;17.584;2022-08-05T11:15:35;24.80;1.00
43143;DHT22;28750;59.842;17.584;2022-08-05T11:20:52;24.60;1.00
43143;DHT22;28750;59.842;17.584;2022-08-05T11:23:40;24.20;1.00
43143;DHT22;28750;59.842;17.584;2022-08-05T11:26:09;24.10;16.60
43143;DHT22;28750;59.842;17.584;2022-08-05T11:28:38;23.80;7.40
43143;DHT22;28750;59.842;17.584;2022-08-05T11:36:18;23.50;99.90
43143;DHT22;28750;59.842;17.584;2022-08-05T11:41:24;23.00;99.90
43143;DHT22;28750;59.842;17.584;2022-08-05T11:43:57;22.70;99.90
43143;DHT22;28750;59.842;17.584;2022-08-05T11:46:34;22.50;99.90
43143;DHT22;28750;59.842;17.584;2022-08-05T11:49:03;22.30;99.90
43143;DHT22;28750;59.842;17.584;2022-08-05T11:51:31;22.10;99.90
43143;DHT22;28750;59.842;17.584;2022-08-05T11:53:58;21.80;99.90
43143;DHT22;28750;59.842;17.584;2022-08-05T11:56:46;21.30;99.90
43143;DHT22;28750;59.842;17.584;2022-08-05T11:59:15;21.10;99.90
43143;DHT22;28750;59.842;17.584;2022-08-05T12:04:20;21.00;99.90
43143;DHT22;28750;59.842;17.584;2022-08-05T12:06:47;20.90;99.90
43143;DHT22;28750;59.842;17.584;2022-08-05T12:09:18;20.60;99.90
43143;DHT22;28750;59.842;17.584;2022-08-05T12:11:46;20.60;99.90
43143;DHT22;28750;59.842;17.584;2022-08-05T12:14:13;20.70;99.90
43143;DHT22;28750;59.842;17.584;2022-08-05T12:16:42;20.70;99.90
43143;DHT22;28750;59.842;17.584;2022-08-05T12:19:10;20.80;99.90
43143;DHT22;28750;59.842;17.584;2022-08-05T12:21:46;20.90;99.90
43143;DHT22;28750;59.842;17.584;2022-08-05T12:24:18;20.80;99.90
43143;DHT22;28750;59.842;17.584;2022-08-05T12:26:47;20.80;99.90
43143;DHT22;28750;59.842;17.584;2022-08-05T12:29:17;20.80;99.90
43143;DHT22;28750;59.842;17.584;2022-08-05T12:31:48;20.90;99.90
43143;DHT22;28750;59.842;17.584;2022-08-05T12:34:17;20.90;99.90
43143;DHT22;28750;59.842;17.584;2022-08-05T12:36:46;20.90;99.90
43143;DHT22;28750;59.842;17.584;2022-08-05T12:39:13;20.80;99.90
43143;DHT22;28750;59.842;17.584;2022-08-05T12:41:41;20.70;99.90
43143;DHT22;28750;59.842;17.584;2022-08-05T12:44:12;20.90;99.90
43143;DHT22;28750;59.842;17.584;2022-08-05T12:46:41;20.80;99.90
43143;DHT22;28750;59.842;17.584;2022-08-05T12:49:09;20.90;99.90
43143;DHT22;28750;59.842;17.584;2022-08-05T12:51:56;20.90;99.90
43143;DHT22;28750;59.842;17.584;2022-08-05T12:54:29;20.70;99.90
43143;DHT22;28750;59.842;17.584;2022-08-05T12:56:59;20.70;99.90
43143;DHT22;28750;59.842;17.584;2022-08-05T12:59:32;20.80;99.90
43143;DHT22;28750;59.842;17.584;2022-08-05T13:02:10;20.80;99.90
43143;DHT22;28750;59.842;17.584;2022-08-05T13:04:39;20.80;99.90
43143;DHT22;28750;59.842;17.584;2022-08-05T13:07:12;20.80;99.90
43143;DHT22;28750;59.842;17.584;2022-08-05T13:09:41;20.80;99.90
43143;DHT22;28750;59.842;17.584;2022-08-05T13:12:10;20.80;99.90
43143;DHT22;28750;59.842;17.584;2022-08-05T13:14:43;20.80;99.90
43143;DHT22;28750;59.842;17.584;2022-08-05T13:19:56;20.90;99.90
43143;DHT22;28750;59.842;17.584;2022-08-05T13:22:23;21.00;99.90
43143;DHT22;28750;59.842;17.584;2022-08-05T13:24:50;20.90;99.90
43143;DHT22;28750;59.842;17.584;2022-08-05T13:27:33;20.90;99.90
43143;DHT22;28750;59.842;17.584;2022-08-05T13:30:00;20.90;99.90
43143;DHT22;28750;59.842;17.584;2022-08-05T13:32:27;20.80;99.90
43143;DHT22;28750;59.842;17.584;2022-08-05T13:34:54;20.70;99.90
43143;DHT22;28750;59.842;17.584;2022-08-05T13:37:21;20.70;99.90
43143;DHT22;28750;59.842;17.584;2022-08-05T13:39:50;20.80;99.90
43143;DHT22;28750;59.842;17.584;2022-08-05T13:42:19;20.80;99.90
43143;DHT22;28750;59.842;17.584;2022-08-05T13:44:46;20.60;99.90
43143;DHT22;28750;59.842;17.584;2022-08-05T13:47:14;20.60;99.90
43143;DHT22;28750;59.842;17.584;2022-08-05T13:49:41;20.50;99.90
43143;DHT22;28750;59.842;17.584;2022-08-05T13:52:15;20.60;99.90
43143;DHT22;28750;59.842;17.584;2022-08-05T13:54:44;20.80;99.90
43143;DHT22;28750;59.842;17.584;2022-08-05T13:57:11;20.70;99.90
43143;DHT22;28750;59.842;17.584;2022-08-05T13:59:41;20.70;99.90
43143;DHT22;28750;59.842;17.584;2022-08-05T14:02:10;20.60;99.90
43143;DHT22;28750;59.842;17.584;2022-08-05T14:04:40;20.60;99.90
43143;DHT22;28750;59.842;17.584;2022-08-05T14:07:37;20.70;99.90
43143;DHT22;28750;59.842;17.584;2022-08-05T14:12:36;20.70;99.90
43143;DHT22;28750;59.842;17.584;2022-08-05T14:15:04;20.70;99.90
43143;DHT22;28750;59.842;17.584;2022-08-05T14:17:31;20.60;99.90
43143;DHT22;28750;59.842;17.584;2022-08-05T14:19:58;20.70;99.90
43143;DHT22;28750;59.842;17.584;2022-08-05T14:22:25;20.70;99.90
43143;DHT22;28750;59.842;17.584;2022-08-05T14:24:52;20.70;99.90
43143;DHT22;28750;59.842;17.584;2022-08-05T14:27:19;20.70;99.90
43143;DHT22;28750;59.842;17.584;2022-08-05T14:29:46;20.70;99.90
43143;DHT22;28750;59.842;17.584;2022-08-05T14:32:13;20.80;99.90
43143;DHT22;28750;59.842;17.584;2022-08-05T14:34:40;20.80;99.90
43143;DHT22;28750;59.842;17.584;2022-08-05T14:37:07;20.80;99.90
43143;DHT22;28750;59.842;17.584;2022-08-05T14:39:34;20.80;99.90
43143;DHT22;28750;59.842;17.584;2022-08-05T14:42:01;20.80;99.90
43143;DHT22;28750;59.842;17.584;2022-08-05T14:44:28;20.70;99.90
43143;DHT22;28750;59.842;17.584;2022-08-05T14:46:55;20.70;99.90
43143;DHT22;28750;59.842;17.584;2022-08-05T14:49:22;20.70;99.90
43143;DHT22;28750;59.842;17.584;2022-08-05T14:51:49;20.70;99.90
43143;DHT22;28750;59.842;17.584;2022-08-05T14:54:16;20.70;99.90
43143;DHT22;28750;59.842;17.584;2022-08-05T14:56:44;20.70;99.90
43143;DHT22;28750;59.842;17.584;2022-08-05T14:59:11;20.70;99.90
43143;DHT22;28750;59.842;17.584;2022-08-05T15:01:38;20.70;99.90
43143;DHT22;28750;59.842;17.584;2022-08-05T15:04:05;20.60;99.90
43143;DHT22;28750;59.842;17.584;2022-08-05T15:06:35;20.60;99.90
43143;DHT22;28750;59.842;17.584;2022-08-05T15:09:03;20.60;99.90
43143;DHT22;28750;59.842;17.584;2022-08-05T15:11:34;20.50;99.90
43143;DHT22;28750;59.842;17.584;2022-08-05T15:14:01;20.60;99.90
43143;DHT22;28750;59.842;17.584;2022-08-05T15:16:29;20.50;99.90
43143;DHT22;28750;59.842;17.584;2022-08-05T15:18:56;20.50;99.90
43143;DHT22;28750;59.842;17.584;2022-08-05T15:21:23;20.40;99.90
43143;DHT22;28750;59.842;17.584;2022-08-05T15:23:50;20.20;99.90
43143;DHT22;28750;59.842;17.584;2022-08-05T15:26:17;20.10;99.90
43143;DHT22;28750;59.842;17.584;2022-08-05T15:28:45;20.10;99.90
43143;DHT22;28750;59.842;17.584;2022-08-05T15:31:12;20.10;99.90
43143;DHT22;28750;59.842;17.584;2022-08-05T15:33:39;20.10;99.90
43143;DHT22;28750;59.842;17.584;2022-08-05T15:36:06;20.10;99.90
43143;DHT22;28750;59.842;17.584;2022-08-05T15:38:34;20.10;99.90
43143;DHT22;28750;59.842;17.584;2022-08-05T15:41:01;20.00;99.90
43143;DHT22;28750;59.842;17.584;2022-08-05T15:43:28;19.90;99.90
43143;DHT22;28750;59.842;17.584;2022-08-05T15:45:55;20.00;99.90
43143;DHT22;28750;59.842;17.584;2022-08-05T15:48:23;19.90;99.90
43143;DHT22;28750;59.842;17.584;2022-08-05T15:50:50;20.00;99.90
43143;DHT22;28750;59.842;17.584;2022-08-05T15:53:17;20.00;99.90
43143;DHT22;28750;59.842;17.584;2022-08-05T15:55:44;20.10;99.90
43143;DHT22;28750;59.842;17.584;2022-08-05T15:58:11;20.10;99.90
43143;DHT22;28750;59.842;17.584;2022-08-05T16:00:38;20.10;99.90
43143;DHT22;28750;59.842;17.584;2022-08-05T16:03:06;20.00;99.90
43143;DHT22;28750;59.842;17.584;2022-08-05T16:05:33;20.00;99.90
43143;DHT22;28750;59.842;17.584;2022-08-05T16:08:02;19.90;99.90